sensor_id;sensor_type;location;lat;lon;timestamp;P1;durP1;ratioP1;P2;durP2;ratioP2
74044;SDS011;62389;51.412;5.436;2023-10-31T00:00:28;12.30;;;6.05;;
74044;SDS011;62389;51.412;5.436;2023-10-31T00:02:53;9.88;;;5.07;;
74044;SDS011;62389;51.412;5.436;2023-10-31T00:05:19;8.48;;;4.70;;
74044;SDS011;62389;51.412;5.436;2023-10-31T00:07:44;9.73;;;5.20;;
74044;SDS011;62389;51.412;5.436;2023-10-31T00:10:09;7.47;;;4.78;;
74044;SDS011;62389;51.412;5.436;2023-10-31T00:12:35;7.22;;;3.92;;
74044;SDS011;62389;51.412;5.436;2023-10-31T00:15:00;6.18;;;3.75;;
74044;SDS011;62389;51.412;5.436;2023-10-31T00:17:26;7.93;;;3.58;;
74044;SDS011;62389;51.412;5.436;2023-10-31T00:19:52;8.23;;;3.30;;
74044;SDS011;62389;51.412;5.436;2023-10-31T00:22:17;8.77;;;3.38;;
74044;SDS011;62389;51.412;5.436;2023-10-31T00:24:42;7.55;;;3.20;;
74044;SDS011;62389;51.412;5.436;2023-10-31T00:27:08;5.55;;;2.90;;
74044;SDS011;62389;51.412;5.436;2023-10-31T00:29:33;8.43;;;2.72;;
74044;SDS011;62389;51.412;5.436;2023-10-31T00:31:59;4.57;;;2.42;;
74044;SDS011;62389;51.412;5.436;2023-10-31T00:34:24;6.40;;;2.58;;
74044;SDS011;62389;51.412;5.436;2023-10-31T00:36:50;5.22;;;2.33;;
74044;SDS011;62389;51.412;5.436;2023-10-31T00:39:15;6.82;;;2.30;;
74044;SDS011;62389;51.412;5.436;2023-10-31T00:41:43;4.20;;;2.08;;
74044;SDS011;62389;51.412;5.436;2023-10-31T00:44:10;8.30;;;2.97;;
74044;SDS011;62389;51.412;5.436;2023-10-31T00:46:35;6.00;;;2.47;;
74044;SDS011;62389;51.412;5.436;2023-10-31T00:49:01;6.82;;;3.30;;
74044;SDS011;62389;51.412;5.436;2023-10-31T00:51:26;9.30;;;4.50;;
74044;SDS011;62389;51.412;5.436;2023-10-31T00:53:52;11.35;;;4.40;;
74044;SDS011;62389;51.412;5.436;2023-10-31T00:56:17;14.20;;;6.45;;
74044;SDS011;62389;51.412;5.436;2023-10-31T00:58:42;14.93;;;6.63;;
74044;SDS011;62389;51.412;5.436;2023-10-31T01:01:08;14.15;;;7.03;;
74044;SDS011;62389;51.412;5.436;2023-10-31T01:03:33;18.58;;;9.43;;
74044;SDS011;62389;51.412;5.436;2023-10-31T01:05:58;22.50;;;8.45;;
74044;SDS011;62389;51.412;5.436;2023-10-31T01:08:24;19.08;;;8.43;;
74044;SDS011;62389;51.412;5.436;2023-10-31T01:10:50;20.67;;;9.05;;
74044;SDS011;62389;51.412;5.436;2023-10-31T01:13:15;18.23;;;8.73;;
74044;SDS011;62389;51.412;5.436;2023-10-31T01:15:40;19.23;;;10.13;;
74044;SDS011;62389;51.412;5.436;2023-10-31T01:18:06;19.27;;;9.43;;
74044;SDS011;62389;51.412;5.436;2023-10-31T01:20:31;24.05;;;9.77;;
74044;SDS011;62389;51.412;5.436;2023-10-31T01:22:57;20.17;;;9.52;;
74044;SDS011;62389;51.412;5.436;2023-10-31T01:25:22;21.30;;;10.13;;
74044;SDS011;62389;51.412;5.436;2023-10-31T01:27:47;23.92;;;10.02;;
74044;SDS011;62389;51.412;5.436;2023-10-31T01:30:13;25.13;;;13.40;;
74044;SDS011;62389;51.412;5.436;2023-10-31T01:32:38;22.52;;;10.50;;
74044;SDS011;62389;51.412;5.436;2023-10-31T01:35:04;23.58;;;10.45;;
74044;SDS011;62389;51.412;5.436;2023-10-31T01:37:30;25.92;;;11.68;;
74044;SDS011;62389;51.412;5.436;2023-10-31T01:39:55;19.55;;;10.52;;
74044;SDS011;62389;51.412;5.436;2023-10-31T01:42:20;21.77;;;10.35;;
74044;SDS011;62389;51.412;5.436;2023-10-31T01:44:46;21.60;;;10.48;;
74044;SDS011;62389;51.412;5.436;2023-10-31T01:47:11;25.63;;;10.77;;
74044;SDS011;62389;51.412;5.436;2023-10-31T01:49:37;24.90;;;10.75;;
74044;SDS011;62389;51.412;5.436;2023-10-31T01:52:03;20.70;;;10.57;;
74044;SDS011;62389;51.412;5.436;2023-10-31T01:54:29;18.25;;;9.45;;
74044;SDS011;62389;51.412;5.436;2023-10-31T01:56:55;22.75;;;10.50;;
74044;SDS011;62389;51.412;5.436;2023-10-31T01:59:26;18.90;;;9.65;;
74044;SDS011;62389;51.412;5.436;2023-10-31T02:01:52;21.17;;;10.27;;
74044;SDS011;62389;51.412;5.436;2023-10-31T02:04:18;21.98;;;10.13;;
74044;SDS011;62389;51.412;5.436;2023-10-31T02:06:43;20.65;;;10.02;;
74044;SDS011;62389;51.412;5.436;2023-10-31T02:09:09;20.58;;;9.65;;
74044;SDS011;62389;51.412;5.436;2023-10-31T02:11:34;22.33;;;9.90;;
74044;SDS011;62389;51.412;5.436;2023-10-31T02:14:00;21.17;;;9.90;;
74044;SDS011;62389;51.412;5.436;2023-10-31T02:16:26;24.75;;;10.52;;
74044;SDS011;62389;51.412;5.436;2023-10-31T02:18:52;19.40;;;9.55;;
74044;SDS011;62389;51.412;5.436;2023-10-31T02:21:19;22.67;;;12.32;;
74044;SDS011;62389;51.412;5.436;2023-10-31T02:23:56;24.90;;;11.63;;
74044;SDS011;62389;51.412;5.436;2023-10-31T02:26:22;22.35;;;10.75;;
74044;SDS011;62389;51.412;5.436;2023-10-31T02:28:48;27.55;;;11.15;;
74044;SDS011;62389;51.412;5.436;2023-10-31T02:31:13;23.30;;;11.35;;
74044;SDS011;62389;51.412;5.436;2023-10-31T02:33:39;21.95;;;10.60;;
74044;SDS011;62389;51.412;5.436;2023-10-31T02:36:04;23.88;;;12.02;;
74044;SDS011;62389;51.412;5.436;2023-10-31T02:38:29;26.40;;;12.63;;
74044;SDS011;62389;51.412;5.436;2023-10-31T02:40:55;25.02;;;11.63;;
74044;SDS011;62389;51.412;5.436;2023-10-31T02:43:20;26.58;;;12.88;;
74044;SDS011;62389;51.412;5.436;2023-10-31T02:45:45;26.65;;;13.07;;
74044;SDS011;62389;51.412;5.436;2023-10-31T02:48:11;25.55;;;11.77;;
74044;SDS011;62389;51.412;5.436;2023-10-31T02:50:36;26.80;;;13.18;;
74044;SDS011;62389;51.412;5.436;2023-10-31T02:53:01;24.83;;;11.85;;
74044;SDS011;62389;51.412;5.436;2023-10-31T02:55:27;30.63;;;12.63;;
74044;SDS011;62389;51.412;5.436;2023-10-31T02:57:52;24.25;;;11.48;;
74044;SDS011;62389;51.412;5.436;2023-10-31T03:00:18;27.00;;;12.50;;
74044;SDS011;62389;51.412;5.436;2023-10-31T03:02:43;25.15;;;11.65;;
74044;SDS011;62389;51.412;5.436;2023-10-31T03:05:08;25.98;;;11.23;;
74044;SDS011;62389;51.412;5.436;2023-10-31T03:07:34;22.35;;;11.18;;
74044;SDS011;62389;51.412;5.436;2023-10-31T03:09:59;23.88;;;12.05;;
74044;SDS011;62389;51.412;5.436;2023-10-31T03:12:24;27.33;;;11.80;;
74044;SDS011;62389;51.412;5.436;2023-10-31T03:14:50;24.58;;;11.23;;
74044;SDS011;62389;51.412;5.436;2023-10-31T03:17:15;24.42;;;12.50;;
74044;SDS011;62389;51.412;5.436;2023-10-31T03:19:41;24.08;;;12.18;;
74044;SDS011;62389;51.412;5.436;2023-10-31T03:22:06;23.33;;;12.43;;
74044;SDS011;62389;51.412;5.436;2023-10-31T03:24:31;23.15;;;12.45;;
74044;SDS011;62389;51.412;5.436;2023-10-31T03:26:57;24.33;;;11.32;;
74044;SDS011;62389;51.412;5.436;2023-10-31T03:29:22;23.42;;;11.23;;
74044;SDS011;62389;51.412;5.436;2023-10-31T03:31:47;27.65;;;12.00;;
74044;SDS011;62389;51.412;5.436;2023-10-31T03:34:13;21.70;;;11.45;;
74044;SDS011;62389;51.412;5.436;2023-10-31T03:36:38;25.13;;;10.80;;
74044;SDS011;62389;51.412;5.436;2023-10-31T03:39:03;24.67;;;12.10;;
74044;SDS011;62389;51.412;5.436;2023-10-31T03:41:29;21.75;;;11.05;;
74044;SDS011;62389;51.412;5.436;2023-10-31T03:43:54;23.00;;;11.57;;
74044;SDS011;62389;51.412;5.436;2023-10-31T03:46:19;22.20;;;10.40;;
74044;SDS011;62389;51.412;5.436;2023-10-31T03:48:45;21.85;;;11.48;;
74044;SDS011;62389;51.412;5.436;2023-10-31T03:51:10;23.55;;;10.70;;
74044;SDS011;62389;51.412;5.436;2023-10-31T03:53:35;20.52;;;10.95;;
74044;SDS011;62389;51.412;5.436;2023-10-31T03:56:01;24.80;;;11.73;;
74044;SDS011;62389;51.412;5.436;2023-10-31T03:58:26;21.00;;;10.73;;
74044;SDS011;62389;51.412;5.436;2023-10-31T04:00:51;22.10;;;11.48;;
74044;SDS011;62389;51.412;5.436;2023-10-31T04:03:17;20.52;;;10.25;;
74044;SDS011;62389;51.412;5.436;2023-10-31T04:05:42;24.30;;;10.15;;
74044;SDS011;62389;51.412;5.436;2023-10-31T04:08:07;23.55;;;11.52;;
74044;SDS011;62389;51.412;5.436;2023-10-31T04:10:33;19.85;;;10.60;;
74044;SDS011;62389;51.412;5.436;2023-10-31T04:12:58;21.58;;;10.00;;
74044;SDS011;62389;51.412;5.436;2023-10-31T04:15:24;19.55;;;9.68;;
74044;SDS011;62389;51.412;5.436;2023-10-31T04:17:49;18.58;;;9.40;;
74044;SDS011;62389;51.412;5.436;2023-10-31T04:20:15;16.85;;;9.52;;
74044;SDS011;62389;51.412;5.436;2023-10-31T04:22:40;18.85;;;8.75;;
74044;SDS011;62389;51.412;5.436;2023-10-31T04:25:05;15.13;;;8.60;;
74044;SDS011;62389;51.412;5.436;2023-10-31T04:27:31;17.48;;;8.70;;
74044;SDS011;62389;51.412;5.436;2023-10-31T04:29:56;14.50;;;7.60;;
74044;SDS011;62389;51.412;5.436;2023-10-31T04:32:22;14.88;;;7.43;;
74044;SDS011;62389;51.412;5.436;2023-10-31T04:34:47;13.45;;;8.27;;
74044;SDS011;62389;51.412;5.436;2023-10-31T04:37:12;13.90;;;7.82;;
74044;SDS011;62389;51.412;5.436;2023-10-31T04:39:38;16.67;;;7.63;;
74044;SDS011;62389;51.412;5.436;2023-10-31T04:42:03;13.60;;;7.47;;
74044;SDS011;62389;51.412;5.436;2023-10-31T04:44:28;14.55;;;7.97;;
74044;SDS011;62389;51.412;5.436;2023-10-31T04:46:54;15.48;;;9.02;;
74044;SDS011;62389;51.412;5.436;2023-10-31T04:49:19;15.23;;;8.95;;
74044;SDS011;62389;51.412;5.436;2023-10-31T04:51:45;17.25;;;9.10;;
74044;SDS011;62389;51.412;5.436;2023-10-31T04:54:11;14.20;;;8.90;;
74044;SDS011;62389;51.412;5.436;2023-10-31T04:56:36;19.50;;;10.23;;
74044;SDS011;62389;51.412;5.436;2023-10-31T04:59:01;25.52;;;9.77;;
74044;SDS011;62389;51.412;5.436;2023-10-31T05:01:27;19.45;;;9.82;;
74044;SDS011;62389;51.412;5.436;2023-10-31T05:03:52;18.58;;;8.75;;
74044;SDS011;62389;51.412;5.436;2023-10-31T05:06:21;19.75;;;10.50;;
74044;SDS011;62389;51.412;5.436;2023-10-31T05:08:47;18.55;;;9.93;;
74044;SDS011;62389;51.412;5.436;2023-10-31T05:11:13;19.55;;;9.55;;
74044;SDS011;62389;51.412;5.436;2023-10-31T05:13:38;17.63;;;9.90;;
74044;SDS011;62389;51.412;5.436;2023-10-31T05:16:04;20.75;;;11.55;;
74044;SDS011;62389;51.412;5.436;2023-10-31T05:18:30;20.85;;;11.88;;
74044;SDS011;62389;51.412;5.436;2023-10-31T05:20:55;20.25;;;10.55;;
74044;SDS011;62389;51.412;5.436;2023-10-31T05:23:21;20.40;;;10.40;;
74044;SDS011;62389;51.412;5.436;2023-10-31T05:25:46;19.55;;;11.27;;
74044;SDS011;62389;51.412;5.436;2023-10-31T05:28:11;19.85;;;10.60;;
74044;SDS011;62389;51.412;5.436;2023-10-31T05:30:37;20.42;;;10.25;;
74044;SDS011;62389;51.412;5.436;2023-10-31T05:33:02;20.42;;;11.15;;
74044;SDS011;62389;51.412;5.436;2023-10-31T05:35:28;17.80;;;9.60;;
74044;SDS011;62389;51.412;5.436;2023-10-31T05:37:53;18.88;;;9.88;;
74044;SDS011;62389;51.412;5.436;2023-10-31T05:40:18;16.65;;;8.95;;
74044;SDS011;62389;51.412;5.436;2023-10-31T05:42:47;17.67;;;10.23;;
74044;SDS011;62389;51.412;5.436;2023-10-31T05:45:12;16.65;;;9.13;;
74044;SDS011;62389;51.412;5.436;2023-10-31T05:47:38;20.23;;;10.18;;
74044;SDS011;62389;51.412;5.436;2023-10-31T05:50:04;18.88;;;9.65;;
74044;SDS011;62389;51.412;5.436;2023-10-31T05:52:30;15.82;;;8.48;;
74044;SDS011;62389;51.412;5.436;2023-10-31T05:54:57;13.95;;;8.13;;
74044;SDS011;62389;51.412;5.436;2023-10-31T05:57:23;15.75;;;8.52;;
74044;SDS011;62389;51.412;5.436;2023-10-31T05:59:48;17.88;;;10.00;;
74044;SDS011;62389;51.412;5.436;2023-10-31T06:02:13;17.25;;;8.85;;
74044;SDS011;62389;51.412;5.436;2023-10-31T06:04:39;17.70;;;8.40;;
74044;SDS011;62389;51.412;5.436;2023-10-31T06:07:05;15.48;;;8.18;;
74044;SDS011;62389;51.412;5.436;2023-10-31T06:09:31;15.52;;;8.02;;
74044;SDS011;62389;51.412;5.436;2023-10-31T06:14:23;15.43;;;8.48;;
74044;SDS011;62389;51.412;5.436;2023-10-31T06:16:49;16.67;;;8.65;;
74044;SDS011;62389;51.412;5.436;2023-10-31T06:19:14;17.73;;;10.05;;
74044;SDS011;62389;51.412;5.436;2023-10-31T06:21:39;16.05;;;8.85;;
74044;SDS011;62389;51.412;5.436;2023-10-31T06:24:05;17.38;;;9.15;;
74044;SDS011;62389;51.412;5.436;2023-10-31T06:26:31;15.95;;;9.00;;
74044;SDS011;62389;51.412;5.436;2023-10-31T06:28:56;19.55;;;10.93;;
74044;SDS011;62389;51.412;5.436;2023-10-31T06:31:21;16.48;;;8.88;;
74044;SDS011;62389;51.412;5.436;2023-10-31T06:33:47;17.75;;;10.52;;
74044;SDS011;62389;51.412;5.436;2023-10-31T06:36:12;19.42;;;10.05;;
74044;SDS011;62389;51.412;5.436;2023-10-31T06:38:38;20.42;;;11.35;;
74044;SDS011;62389;51.412;5.436;2023-10-31T06:41:03;16.73;;;9.68;;
74044;SDS011;62389;51.412;5.436;2023-10-31T06:43:29;18.92;;;10.82;;
74044;SDS011;62389;51.412;5.436;2023-10-31T06:45:54;14.85;;;8.90;;
74044;SDS011;62389;51.412;5.436;2023-10-31T06:48:20;18.13;;;9.52;;
74044;SDS011;62389;51.412;5.436;2023-10-31T06:50:45;16.77;;;9.30;;
74044;SDS011;62389;51.412;5.436;2023-10-31T06:53:11;15.25;;;8.32;;
74044;SDS011;62389;51.412;5.436;2023-10-31T06:55:36;15.30;;;8.73;;
74044;SDS011;62389;51.412;5.436;2023-10-31T06:58:01;16.92;;;8.95;;
74044;SDS011;62389;51.412;5.436;2023-10-31T07:00:27;13.32;;;7.55;;
74044;SDS011;62389;51.412;5.436;2023-10-31T07:02:53;15.05;;;8.50;;
74044;SDS011;62389;51.412;5.436;2023-10-31T07:05:18;13.05;;;7.13;;
74044;SDS011;62389;51.412;5.436;2023-10-31T07:07:45;11.75;;;7.15;;
74044;SDS011;62389;51.412;5.436;2023-10-31T07:10:13;11.57;;;7.07;;
74044;SDS011;62389;51.412;5.436;2023-10-31T07:12:39;10.80;;;6.90;;
74044;SDS011;62389;51.412;5.436;2023-10-31T07:15:05;11.95;;;7.38;;
74044;SDS011;62389;51.412;5.436;2023-10-31T07:17:31;12.65;;;7.45;;
74044;SDS011;62389;51.412;5.436;2023-10-31T07:19:56;11.27;;;6.38;;
74044;SDS011;62389;51.412;5.436;2023-10-31T07:22:22;11.75;;;6.63;;
74044;SDS011;62389;51.412;5.436;2023-10-31T07:24:49;12.63;;;7.32;;
74044;SDS011;62389;51.412;5.436;2023-10-31T07:27:15;13.15;;;7.20;;
74044;SDS011;62389;51.412;5.436;2023-10-31T07:29:40;10.85;;;6.43;;
74044;SDS011;62389;51.412;5.436;2023-10-31T07:32:07;12.60;;;7.63;;
74044;SDS011;62389;51.412;5.436;2023-10-31T07:34:33;14.02;;;8.00;;
74044;SDS011;62389;51.412;5.436;2023-10-31T07:36:58;14.38;;;7.35;;
74044;SDS011;62389;51.412;5.436;2023-10-31T07:39:23;13.02;;;7.88;;
74044;SDS011;62389;51.412;5.436;2023-10-31T07:41:49;15.02;;;9.15;;
74044;SDS011;62389;51.412;5.436;2023-10-31T07:44:14;13.85;;;8.05;;
74044;SDS011;62389;51.412;5.436;2023-10-31T07:46:39;15.77;;;7.72;;
74044;SDS011;62389;51.412;5.436;2023-10-31T07:49:05;15.88;;;8.65;;
74044;SDS011;62389;51.412;5.436;2023-10-31T07:51:31;14.75;;;7.97;;
74044;SDS011;62389;51.412;5.436;2023-10-31T07:53:56;15.35;;;8.98;;
74044;SDS011;62389;51.412;5.436;2023-10-31T07:56:23;17.40;;;10.45;;
74044;SDS011;62389;51.412;5.436;2023-10-31T07:58:50;20.20;;;9.90;;
74044;SDS011;62389;51.412;5.436;2023-10-31T08:01:18;18.42;;;10.00;;
74044;SDS011;62389;51.412;5.436;2023-10-31T08:03:45;19.80;;;11.23;;
74044;SDS011;62389;51.412;5.436;2023-10-31T08:06:12;21.52;;;11.55;;
74044;SDS011;62389;51.412;5.436;2023-10-31T08:08:37;23.00;;;12.45;;
74044;SDS011;62389;51.412;5.436;2023-10-31T08:11:03;23.33;;;11.60;;
74044;SDS011;62389;51.412;5.436;2023-10-31T08:13:29;22.35;;;10.50;;
74044;SDS011;62389;51.412;5.436;2023-10-31T08:15:55;22.83;;;10.00;;
74044;SDS011;62389;51.412;5.436;2023-10-31T08:18:21;18.58;;;8.73;;
74044;SDS011;62389;51.412;5.436;2023-10-31T08:20:48;18.15;;;9.48;;
74044;SDS011;62389;51.412;5.436;2023-10-31T08:23:15;22.30;;;11.10;;
74044;SDS011;62389;51.412;5.436;2023-10-31T08:25:41;17.55;;;8.80;;
74044;SDS011;62389;51.412;5.436;2023-10-31T08:28:07;19.80;;;9.73;;
74044;SDS011;62389;51.412;5.436;2023-10-31T08:30:32;19.52;;;10.20;;
74044;SDS011;62389;51.412;5.436;2023-10-31T08:32:58;17.02;;;9.50;;
74044;SDS011;62389;51.412;5.436;2023-10-31T08:35:23;21.75;;;8.40;;
74044;SDS011;62389;51.412;5.436;2023-10-31T08:37:48;17.58;;;8.95;;
74044;SDS011;62389;51.412;5.436;2023-10-31T08:40:14;18.92;;;9.60;;
74044;SDS011;62389;51.412;5.436;2023-10-31T08:42:39;18.88;;;9.45;;
74044;SDS011;62389;51.412;5.436;2023-10-31T08:45:04;15.50;;;8.57;;
74044;SDS011;62389;51.412;5.436;2023-10-31T08:47:30;16.80;;;8.32;;
74044;SDS011;62389;51.412;5.436;2023-10-31T08:49:56;17.52;;;8.23;;
74044;SDS011;62389;51.412;5.436;2023-10-31T08:52:21;17.15;;;7.40;;
74044;SDS011;62389;51.412;5.436;2023-10-31T08:54:47;16.88;;;7.65;;
74044;SDS011;62389;51.412;5.436;2023-10-31T08:57:12;18.85;;;8.40;;
74044;SDS011;62389;51.412;5.436;2023-10-31T08:59:38;13.77;;;7.53;;
74044;SDS011;62389;51.412;5.436;2023-10-31T09:02:04;16.00;;;8.48;;
74044;SDS011;62389;51.412;5.436;2023-10-31T09:04:30;15.77;;;7.80;;
74044;SDS011;62389;51.412;5.436;2023-10-31T09:06:55;17.33;;;8.70;;
74044;SDS011;62389;51.412;5.436;2023-10-31T09:09:20;15.13;;;7.95;;
74044;SDS011;62389;51.412;5.436;2023-10-31T09:11:46;18.02;;;7.82;;
74044;SDS011;62389;51.412;5.436;2023-10-31T09:14:11;16.98;;;8.02;;
74044;SDS011;62389;51.412;5.436;2023-10-31T09:16:36;16.15;;;8.93;;
74044;SDS011;62389;51.412;5.436;2023-10-31T09:19:02;19.52;;;7.70;;
74044;SDS011;62389;51.412;5.436;2023-10-31T09:21:27;14.80;;;7.50;;
74044;SDS011;62389;51.412;5.436;2023-10-31T09:23:52;15.13;;;8.18;;
74044;SDS011;62389;51.412;5.436;2023-10-31T09:26:18;13.45;;;8.00;;
74044;SDS011;62389;51.412;5.436;2023-10-31T09:28:43;17.77;;;9.10;;
74044;SDS011;62389;51.412;5.436;2023-10-31T09:31:15;14.82;;;7.03;;
74044;SDS011;62389;51.412;5.436;2023-10-31T09:33:44;13.75;;;6.65;;
74044;SDS011;62389;51.412;5.436;2023-10-31T09:36:10;17.75;;;7.40;;
74044;SDS011;62389;51.412;5.436;2023-10-31T09:38:36;15.88;;;7.40;;
74044;SDS011;62389;51.412;5.436;2023-10-31T09:41:02;17.67;;;8.18;;
74044;SDS011;62389;51.412;5.436;2023-10-31T09:43:29;15.98;;;6.95;;
74044;SDS011;62389;51.412;5.436;2023-10-31T09:45:54;18.27;;;8.00;;
74044;SDS011;62389;51.412;5.436;2023-10-31T09:48:20;12.93;;;6.80;;
74044;SDS011;62389;51.412;5.436;2023-10-31T09:50:46;15.70;;;6.68;;
74044;SDS011;62389;51.412;5.436;2023-10-31T09:53:12;15.38;;;7.22;;
74044;SDS011;62389;51.412;5.436;2023-10-31T09:55:39;16.88;;;7.20;;
74044;SDS011;62389;51.412;5.436;2023-10-31T09:58:05;15.35;;;8.50;;
74044;SDS011;62389;51.412;5.436;2023-10-31T10:00:30;13.45;;;6.88;;
74044;SDS011;62389;51.412;5.436;2023-10-31T10:02:56;13.52;;;6.95;;
74044;SDS011;62389;51.412;5.436;2023-10-31T10:05:22;15.50;;;7.30;;
74044;SDS011;62389;51.412;5.436;2023-10-31T10:07:48;16.00;;;7.10;;
74044;SDS011;62389;51.412;5.436;2023-10-31T10:10:15;15.27;;;7.40;;
74044;SDS011;62389;51.412;5.436;2023-10-31T10:12:41;13.65;;;6.45;;
74044;SDS011;62389;51.412;5.436;2023-10-31T10:17:33;15.17;;;6.53;;
74044;SDS011;62389;51.412;5.436;2023-10-31T10:20:05;14.05;;;7.05;;
74044;SDS011;62389;51.412;5.436;2023-10-31T10:25:19;13.35;;;6.75;;
74044;SDS011;62389;51.412;5.436;2023-10-31T10:27:44;17.10;;;7.70;;
74044;SDS011;62389;51.412;5.436;2023-10-31T10:30:12;15.20;;;6.80;;
74044;SDS011;62389;51.412;5.436;2023-10-31T10:32:38;14.07;;;6.60;;
74044;SDS011;62389;51.412;5.436;2023-10-31T10:35:04;12.32;;;6.63;;
74044;SDS011;62389;51.412;5.436;2023-10-31T10:37:30;10.55;;;6.32;;
74044;SDS011;62389;51.412;5.436;2023-10-31T10:39:56;14.75;;;6.45;;
74044;SDS011;62389;51.412;5.436;2023-10-31T10:42:32;15.45;;;6.47;;
74044;SDS011;62389;51.412;5.436;2023-10-31T10:45:02;12.98;;;6.72;;
74044;SDS011;62389;51.412;5.436;2023-10-31T10:47:32;11.65;;;6.55;;
74044;SDS011;62389;51.412;5.436;2023-10-31T10:49:59;18.15;;;7.32;;
74044;SDS011;62389;51.412;5.436;2023-10-31T10:52:30;10.30;;;5.50;;
74044;SDS011;62389;51.412;5.436;2023-10-31T10:55:20;11.35;;;5.55;;
74044;SDS011;62389;51.412;5.436;2023-10-31T10:57:52;11.48;;;6.63;;
74044;SDS011;62389;51.412;5.436;2023-10-31T11:00:25;12.88;;;5.90;;
74044;SDS011;62389;51.412;5.436;2023-10-31T11:02:52;13.13;;;5.63;;
74044;SDS011;62389;51.412;5.436;2023-10-31T11:05:18;10.82;;;5.95;;
74044;SDS011;62389;51.412;5.436;2023-10-31T11:07:44;13.38;;;6.25;;
74044;SDS011;62389;51.412;5.436;2023-10-31T11:10:11;13.50;;;5.88;;
74044;SDS011;62389;51.412;5.436;2023-10-31T11:12:37;11.13;;;5.38;;
74044;SDS011;62389;51.412;5.436;2023-10-31T11:17:31;11.45;;;4.53;;
74044;SDS011;62389;51.412;5.436;2023-10-31T11:20:02;10.00;;;4.63;;
74044;SDS011;62389;51.412;5.436;2023-10-31T11:22:38;12.98;;;4.95;;
74044;SDS011;62389;51.412;5.436;2023-10-31T11:25:13;8.65;;;4.43;;
74044;SDS011;62389;51.412;5.436;2023-10-31T11:27:40;8.77;;;4.93;;
74044;SDS011;62389;51.412;5.436;2023-10-31T11:30:08;8.57;;;4.55;;
74044;SDS011;62389;51.412;5.436;2023-10-31T11:32:51;7.13;;;3.95;;
74044;SDS011;62389;51.412;5.436;2023-10-31T11:35:17;9.18;;;4.68;;
74044;SDS011;62389;51.412;5.436;2023-10-31T11:37:48;6.88;;;3.90;;
74044;SDS011;62389;51.412;5.436;2023-10-31T11:40:18;7.85;;;4.65;;
74044;SDS011;62389;51.412;5.436;2023-10-31T11:42:49;9.60;;;4.22;;
74044;SDS011;62389;51.412;5.436;2023-10-31T11:45:33;8.80;;;3.70;;
74044;SDS011;62389;51.412;5.436;2023-10-31T11:48:01;6.13;;;3.58;;
74044;SDS011;62389;51.412;5.436;2023-10-31T11:50:26;7.85;;;3.28;;
74044;SDS011;62389;51.412;5.436;2023-10-31T11:53:08;10.35;;;4.03;;
74044;SDS011;62389;51.412;5.436;2023-10-31T11:55:39;5.40;;;3.00;;
74044;SDS011;62389;51.412;5.436;2023-10-31T12:00:39;5.57;;;2.95;;
74044;SDS011;62389;51.412;5.436;2023-10-31T12:03:04;5.38;;;2.80;;
74044;SDS011;62389;51.412;5.436;2023-10-31T12:05:30;6.80;;;3.38;;
74044;SDS011;62389;51.412;5.436;2023-10-31T12:07:56;5.30;;;2.95;;
74044;SDS011;62389;51.412;5.436;2023-10-31T12:10:25;4.40;;;2.60;;
74044;SDS011;62389;51.412;5.436;2023-10-31T12:12:54;3.72;;;2.20;;
74044;SDS011;62389;51.412;5.436;2023-10-31T12:15:20;4.60;;;1.98;;
74044;SDS011;62389;51.412;5.436;2023-10-31T12:17:46;7.72;;;2.78;;
74044;SDS011;62389;51.412;5.436;2023-10-31T12:20:11;6.50;;;2.50;;
74044;SDS011;62389;51.412;5.436;2023-10-31T12:22:37;5.55;;;2.50;;
74044;SDS011;62389;51.412;5.436;2023-10-31T12:25:05;5.30;;;1.80;;
74044;SDS011;62389;51.412;5.436;2023-10-31T12:27:47;7.40;;;2.70;;
74044;SDS011;62389;51.412;5.436;2023-10-31T12:30:15;4.90;;;1.80;;
74044;SDS011;62389;51.412;5.436;2023-10-31T12:32:42;6.82;;;3.00;;
74044;SDS011;62389;51.412;5.436;2023-10-31T12:35:12;6.38;;;2.17;;
74044;SDS011;62389;51.412;5.436;2023-10-31T12:37:44;4.88;;;2.35;;
74044;SDS011;62389;51.412;5.436;2023-10-31T12:40:12;4.30;;;2.05;;
74044;SDS011;62389;51.412;5.436;2023-10-31T12:42:40;5.43;;;1.98;;
74044;SDS011;62389;51.412;5.436;2023-10-31T12:45:06;6.50;;;3.20;;
74044;SDS011;62389;51.412;5.436;2023-10-31T12:47:33;6.22;;;2.67;;
74044;SDS011;62389;51.412;5.436;2023-10-31T12:55:18;5.50;;;2.40;;
74044;SDS011;62389;51.412;5.436;2023-10-31T12:57:45;6.30;;;2.42;;
74044;SDS011;62389;51.412;5.436;2023-10-31T13:00:14;5.38;;;2.28;;
74044;SDS011;62389;51.412;5.436;2023-10-31T13:02:41;4.18;;;2.05;;
74044;SDS011;62389;51.412;5.436;2023-10-31T13:05:08;4.50;;;2.00;;
74044;SDS011;62389;51.412;5.436;2023-10-31T13:07:37;5.88;;;2.40;;
74044;SDS011;62389;51.412;5.436;2023-10-31T13:10:03;4.43;;;1.90;;
74044;SDS011;62389;51.412;5.436;2023-10-31T13:12:30;3.15;;;1.73;;
74044;SDS011;62389;51.412;5.436;2023-10-31T13:14:55;3.70;;;1.38;;
74044;SDS011;62389;51.412;5.436;2023-10-31T13:17:21;3.38;;;1.90;;
74044;SDS011;62389;51.412;5.436;2023-10-31T13:19:46;3.25;;;1.38;;
74044;SDS011;62389;51.412;5.436;2023-10-31T13:22:12;4.15;;;1.58;;
74044;SDS011;62389;51.412;5.436;2023-10-31T13:24:37;4.72;;;1.50;;
74044;SDS011;62389;51.412;5.436;2023-10-31T13:27:05;5.22;;;1.80;;
74044;SDS011;62389;51.412;5.436;2023-10-31T13:29:31;6.03;;;1.80;;
74044;SDS011;62389;51.412;5.436;2023-10-31T13:31:56;2.85;;;1.70;;
74044;SDS011;62389;51.412;5.436;2023-10-31T13:34:22;3.58;;;1.35;;
74044;SDS011;62389;51.412;5.436;2023-10-31T13:36:48;3.97;;;1.80;;
74044;SDS011;62389;51.412;5.436;2023-10-31T13:39:13;3.03;;;1.60;;
74044;SDS011;62389;51.412;5.436;2023-10-31T13:41:38;7.40;;;1.50;;
74044;SDS011;62389;51.412;5.436;2023-10-31T13:44:05;4.63;;;1.63;;
74044;SDS011;62389;51.412;5.436;2023-10-31T13:46:30;2.25;;;1.55;;
74044;SDS011;62389;51.412;5.436;2023-10-31T13:48:56;3.03;;;1.45;;
74044;SDS011;62389;51.412;5.436;2023-10-31T13:51:21;3.25;;;1.50;;
74044;SDS011;62389;51.412;5.436;2023-10-31T13:53:46;4.53;;;1.67;;
74044;SDS011;62389;51.412;5.436;2023-10-31T13:56:12;4.47;;;1.83;;
74044;SDS011;62389;51.412;5.436;2023-10-31T13:58:37;5.43;;;1.73;;
74044;SDS011;62389;51.412;5.436;2023-10-31T14:01:02;3.47;;;1.60;;
74044;SDS011;62389;51.412;5.436;2023-10-31T14:03:28;4.60;;;1.83;;
74044;SDS011;62389;51.412;5.436;2023-10-31T14:05:53;4.85;;;1.40;;
74044;SDS011;62389;51.412;5.436;2023-10-31T14:08:19;3.90;;;1.67;;
74044;SDS011;62389;51.412;5.436;2023-10-31T14:10:45;3.45;;;1.58;;
74044;SDS011;62389;51.412;5.436;2023-10-31T14:13:11;5.45;;;1.90;;
74044;SDS011;62389;51.412;5.436;2023-10-31T14:15:37;5.50;;;2.08;;
74044;SDS011;62389;51.412;5.436;2023-10-31T14:18:02;4.85;;;1.90;;
74044;SDS011;62389;51.412;5.436;2023-10-31T14:20:28;4.53;;;2.10;;
74044;SDS011;62389;51.412;5.436;2023-10-31T14:22:54;4.13;;;2.15;;
74044;SDS011;62389;51.412;5.436;2023-10-31T14:25:19;5.93;;;2.00;;
74044;SDS011;62389;51.412;5.436;2023-10-31T14:27:44;4.68;;;2.10;;
74044;SDS011;62389;51.412;5.436;2023-10-31T14:30:10;5.43;;;2.40;;
74044;SDS011;62389;51.412;5.436;2023-10-31T14:35:03;8.35;;;2.65;;
74044;SDS011;62389;51.412;5.436;2023-10-31T14:37:28;5.70;;;2.95;;
74044;SDS011;62389;51.412;5.436;2023-10-31T14:39:54;8.45;;;2.50;;
74044;SDS011;62389;51.412;5.436;2023-10-31T14:42:19;5.70;;;2.08;;
74044;SDS011;62389;51.412;5.436;2023-10-31T14:44:45;5.53;;;2.40;;
74044;SDS011;62389;51.412;5.436;2023-10-31T14:47:11;6.68;;;3.05;;
74044;SDS011;62389;51.412;5.436;2023-10-31T14:49:36;4.38;;;2.80;;